Thyatira, Mississippi
Current Conditions -  °F | °C
As of 3:55 AM on Sunday 23 Nov 2014 (Local Time) from KUOX Reporting Station
Haze Haze  
Wind Chill: 55°   Ceiling: 800
Heat Index: 55°   Visibility: 5mi
Dew Point: 54°   Wind: 10mph
Humidity: 94%   Direction: 130°SE
Pressure: 29.85"   Gusts: 18mph
Location:  34.6336°N, 89.8203°W
Report Text: KUOX 230955Z AUTO 13009G16KT 010V020 5SM BR BKN008 OVC012 13/12 A2985 RMK AO2 PWINO PNO
Loading
Personal Weather Stations






























Interactive Weather Map New forecast layout! Learn more

10-Day Weather Forecast

Advertisements
Track Severe Weather on mobile